createdAt,value
2022-10-30T00:01:44.320Z,1.00
2022-10-30T00:04:13.749Z,1.00
2022-10-30T00:06:43.152Z,1.00
2022-10-30T00:09:14.390Z,43.50
2022-10-30T00:11:44.419Z,1.00
2022-10-30T00:14:14.642Z,99.90
2022-10-30T00:16:44.154Z,99.90
2022-10-30T00:19:13.756Z,1.00
2022-10-30T00:21:43.261Z,6.90
2022-10-30T00:24:15.143Z,99.90
2022-10-30T00:26:44.630Z,81.60
2022-10-30T00:29:14.428Z,99.90
2022-10-30T00:31:44.030Z,99.90
2022-10-30T00:34:13.630Z,1.00
2022-10-30T00:36:43.355Z,1.00
2022-10-30T00:39:14.703Z,99.90
2022-10-30T00:41:46.153Z,99.90
2022-10-30T00:44:38.493Z,99.90
2022-10-30T00:47:14.961Z,99.90
2022-10-30T00:49:55.214Z,99.90
2022-10-30T00:52:27.493Z,99.90
2022-10-30T00:55:00.573Z,99.90
2022-10-30T00:57:30.088Z,99.90
2022-10-30T00:59:59.896Z,99.90
2022-10-30T01:02:30.186Z,99.90
2022-10-30T01:04:59.953Z,99.90
2022-10-30T01:07:29.520Z,99.90
2022-10-30T01:10:00.664Z,99.90
2022-10-30T01:12:30.582Z,99.90
2022-10-30T01:15:03.066Z,99.90
2022-10-30T01:18:00.156Z,99.90
2022-10-30T01:20:45.387Z,99.90
2022-10-30T01:23:27.897Z,99.90
2022-10-30T01:26:09.484Z,1.00
2022-10-30T01:29:01.811Z,1.00
2022-10-30T01:31:44.426Z,1.00
2022-10-30T01:34:22.025Z,99.90
2022-10-30T01:36:59.409Z,99.90
2022-10-30T01:39:33.533Z,1.00
2022-10-30T01:42:11.843Z,1.00
2022-10-30T01:44:41.440Z,1.00
2022-10-30T01:47:24.769Z,99.90
2022-10-30T01:50:12.236Z,99.90
2022-10-30T01:52:48.566Z,1.00
2022-10-30T01:55:32.420Z,1.00
2022-10-30T01:58:10.415Z,1.00
2022-10-30T02:00:42.375Z,1.00
2022-10-30T02:03:12.393Z,1.00
2022-10-30T02:05:45.080Z,1.00
2022-10-30T02:08:14.674Z,1.00
2022-10-30T02:10:46.858Z,1.00
2022-10-30T02:15:53.462Z,1.00
2022-10-30T02:18:22.126Z,1.00
2022-10-30T02:20:52.230Z,1.00
2022-10-30T02:23:22.566Z,1.00
2022-10-30T02:25:51.218Z,1.00
2022-10-30T02:28:19.795Z,1.00
2022-10-30T02:30:48.461Z,1.00
2022-10-30T02:35:54.847Z,1.00
2022-10-30T02:38:24.338Z,1.00
2022-10-30T02:40:52.958Z,1.00
2022-10-30T02:43:21.544Z,1.00
2022-10-30T02:45:52.872Z,1.00
2022-10-30T02:48:21.454Z,1.00
2022-10-30T02:50:50.166Z,1.00
2022-10-30T02:53:20.178Z,1.00
2022-10-30T02:55:48.799Z,1.00
2022-10-30T02:58:17.442Z,1.00
2022-10-30T03:00:46.109Z,1.00
2022-10-30T03:03:17.513Z,1.00
2022-10-30T03:05:48.616Z,1.00
2022-10-30T03:08:17.254Z,1.00
2022-10-30T03:10:47.306Z,1.00
2022-10-30T03:13:15.928Z,1.00
2022-10-30T03:15:44.636Z,1.00
2022-10-30T03:18:13.220Z,1.00
2022-10-30T03:20:41.811Z,1.00
2022-10-30T03:23:10.398Z,1.00
2022-10-30T03:25:39.040Z,1.00
2022-10-30T03:28:09.099Z,1.00
2022-10-30T03:30:37.693Z,1.00
2022-10-30T03:33:06.375Z,1.00
2022-10-30T03:35:37.292Z,1.00
2022-10-30T03:38:05.928Z,1.00
2022-10-30T03:40:34.596Z,1.00
2022-10-30T03:43:03.230Z,1.00
2022-10-30T03:45:34.013Z,1.00
2022-10-30T03:48:02.973Z,1.00
2022-10-30T03:50:32.014Z,1.00
2022-10-30T03:53:00.662Z,1.00
2022-10-30T03:55:29.294Z,1.00
2022-10-30T03:57:58.191Z,1.00
2022-10-30T04:00:27.471Z,1.00
2022-10-30T04:02:57.820Z,1.00
2022-10-30T04:05:27.892Z,1.00
2022-10-30T04:08:00.943Z,1.00
2022-10-30T04:10:30.217Z,1.00
2022-10-30T04:13:02.502Z,1.00
2022-10-30T04:15:31.348Z,1.00
2022-10-30T04:18:02.281Z,1.00
2022-10-30T04:20:31.639Z,1.00
2022-10-30T04:23:01.717Z,1.00
2022-10-30T04:25:30.573Z,1.00
2022-10-30T04:27:59.687Z,1.00
2022-10-30T04:30:28.905Z,1.00
2022-10-30T04:32:58.943Z,1.00
2022-10-30T04:35:31.588Z,1.00
2022-10-30T04:38:01.839Z,1.00
2022-10-30T04:40:32.267Z,1.00
2022-10-30T04:43:01.332Z,1.00
2022-10-30T04:45:30.051Z,1.00
2022-10-30T04:48:03.721Z,1.00
2022-10-30T04:50:34.932Z,1.00
2022-10-30T04:53:04.841Z,1.00
2022-10-30T04:55:34.345Z,1.00
2022-10-30T04:58:04.357Z,1.00
2022-10-30T05:00:33.537Z,1.00
2022-10-30T05:03:02.932Z,1.00
2022-10-30T05:05:32.117Z,1.00
2022-10-30T05:08:02.570Z,43.70
2022-10-30T05:10:31.396Z,84.10
2022-10-30T05:13:00.325Z,87.20
2022-10-30T05:15:28.918Z,92.00
2022-10-30T05:17:57.732Z,72.70
2022-10-30T05:20:26.688Z,43.10
2022-10-30T05:22:59.382Z,24.20
2022-10-30T05:25:30.309Z,8.00
2022-10-30T05:28:02.349Z,1.00
2022-10-30T05:30:32.640Z,1.00
2022-10-30T05:33:02.101Z,1.00
2022-10-30T05:35:32.918Z,1.00
2022-10-30T05:38:02.430Z,1.00
2022-10-30T05:40:32.716Z,1.00
2022-10-30T05:43:01.831Z,1.00
2022-10-30T05:45:30.717Z,1.00
2022-10-30T05:48:01.333Z,1.00
2022-10-30T05:50:30.653Z,1.00
2022-10-30T05:52:59.541Z,1.00
2022-10-30T05:55:28.297Z,9.50
2022-10-30T05:58:03.051Z,26.90
2022-10-30T06:00:33.334Z,15.80
2022-10-30T06:03:03.165Z,26.80
2022-10-30T06:05:33.497Z,21.60
2022-10-30T06:08:02.505Z,24.10
2022-10-30T06:10:31.243Z,21.20
2022-10-30T06:13:02.938Z,15.70
2022-10-30T06:15:32.748Z,12.70
2022-10-30T06:18:02.246Z,9.20
2022-10-30T06:20:32.227Z,1.80
2022-10-30T06:23:02.716Z,1.00
2022-10-30T06:25:39.425Z,1.00
2022-10-30T06:28:11.741Z,1.00
2022-10-30T06:30:40.610Z,1.00
2022-10-30T06:33:09.510Z,1.00
2022-10-30T06:35:38.225Z,1.00
2022-10-30T06:38:06.868Z,1.00
2022-10-30T06:40:35.542Z,1.00
2022-10-30T06:43:04.236Z,1.00
2022-10-30T06:45:34.386Z,1.00
2022-10-30T06:48:03.329Z,1.00
2022-10-30T06:50:32.079Z,1.00
2022-10-30T06:53:00.865Z,1.00
2022-10-30T06:55:29.508Z,1.00
2022-10-30T06:57:58.920Z,1.00
2022-10-30T07:00:27.952Z,99.90
2022-10-30T07:02:59.517Z,99.90
2022-10-30T07:05:28.754Z,33.40
2022-10-30T07:08:00.774Z,99.90
2022-10-30T07:10:30.056Z,99.90
2022-10-30T07:13:00.248Z,99.90
2022-10-30T07:15:29.733Z,99.90
2022-10-30T07:18:02.167Z,90.60
2022-10-30T07:20:32.785Z,75.80
2022-10-30T07:23:01.942Z,9.00
2022-10-30T07:25:30.685Z,1.00
2022-10-30T07:27:59.733Z,1.00
2022-10-30T07:30:29.265Z,1.00
2022-10-30T07:33:04.037Z,1.00
2022-10-30T07:35:33.219Z,1.00
2022-10-30T07:38:05.514Z,1.00
2022-10-30T07:40:34.661Z,1.00
2022-10-30T07:43:05.202Z,1.00
2022-10-30T07:45:34.216Z,1.00
2022-10-30T07:48:04.288Z,1.00
2022-10-30T07:50:33.400Z,1.00
2022-10-30T07:53:02.333Z,1.00
2022-10-30T07:55:31.206Z,1.00
2022-10-30T07:58:00.175Z,1.00
2022-10-30T08:00:29.182Z,1.00
2022-10-30T08:02:59.315Z,1.00
2022-10-30T08:05:30.377Z,1.00
2022-10-30T08:08:00.048Z,1.00
2022-10-30T08:10:29.019Z,1.00
2022-10-30T08:12:57.644Z,1.00
2022-10-30T08:15:26.394Z,1.00
2022-10-30T08:17:55.057Z,1.00
2022-10-30T08:20:25.738Z,1.00
2022-10-30T08:22:57.844Z,1.00
2022-10-30T08:25:28.944Z,1.00
2022-10-30T08:27:59.351Z,1.00
2022-10-30T08:30:31.465Z,1.00
2022-10-30T08:33:00.815Z,1.00
2022-10-30T08:35:30.097Z,1.00
2022-10-30T08:38:03.351Z,1.00
2022-10-30T08:40:31.908Z,1.00
2022-10-30T08:43:01.240Z,1.00
2022-10-30T08:45:31.424Z,1.00
2022-10-30T08:48:02.312Z,1.00
2022-10-30T08:50:31.314Z,1.00
2022-10-30T08:53:04.429Z,1.00
2022-10-30T08:55:33.681Z,1.00
2022-10-30T08:58:02.622Z,1.00
2022-10-30T09:00:32.953Z,1.00
2022-10-30T09:03:02.334Z,1.00
2022-10-30T09:05:31.427Z,1.00
2022-10-30T09:08:01.690Z,1.00
2022-10-30T09:10:32.575Z,1.00
2022-10-30T09:13:03.453Z,1.00
2022-10-30T09:15:32.185Z,1.00
2022-10-30T09:18:02.615Z,1.00
2022-10-30T09:20:32.432Z,1.00
2022-10-30T09:23:01.635Z,1.00
2022-10-30T09:25:32.241Z,1.00
2022-10-30T09:28:00.930Z,1.00
2022-10-30T09:30:29.817Z,1.00
2022-10-30T09:32:59.819Z,1.00
2022-10-30T09:35:29.383Z,1.00
2022-10-30T09:37:58.701Z,1.00
2022-10-30T09:40:42.023Z,1.00
2022-10-30T09:43:21.454Z,1.00
2022-10-30T09:46:17.597Z,1.00
2022-10-30T09:49:01.285Z,1.00
2022-10-30T09:51:51.165Z,1.00
2022-10-30T09:54:30.428Z,1.00
2022-10-30T09:57:06.611Z,1.00
2022-10-30T09:59:46.381Z,1.00
2022-10-30T10:02:29.298Z,1.00
2022-10-30T10:05:01.653Z,1.00
2022-10-30T10:07:33.969Z,1.00
2022-10-30T10:10:06.838Z,1.00
2022-10-30T10:12:42.095Z,1.00
2022-10-30T10:15:18.213Z,1.00
2022-10-30T10:17:47.959Z,1.00
2022-10-30T10:20:21.279Z,1.00
2022-10-30T10:22:51.662Z,1.00
2022-10-30T10:25:22.142Z,1.00
2022-10-30T10:28:08.429Z,1.00
2022-10-30T10:30:47.830Z,1.00
2022-10-30T10:33:56.753Z,1.00
2022-10-30T10:36:36.661Z,1.00
2022-10-30T10:39:18.240Z,1.00
2022-10-30T10:42:04.096Z,1.00
2022-10-30T10:44:48.941Z,1.00
2022-10-30T10:47:38.387Z,1.00
2022-10-30T10:50:21.000Z,1.00
2022-10-30T10:52:54.865Z,1.00
2022-10-30T10:55:27.496Z,1.00
2022-10-30T10:58:00.941Z,1.00
2022-10-30T11:00:31.794Z,1.00
2022-10-30T11:03:07.084Z,1.00
2022-10-30T11:05:40.779Z,1.00
2022-10-30T11:08:16.701Z,1.00
2022-10-30T11:10:45.967Z,1.00
2022-10-30T11:13:15.653Z,1.00
2022-10-30T11:15:58.221Z,1.00
2022-10-30T11:18:27.028Z,1.00
2022-10-30T11:21:02.093Z,1.00
2022-10-30T11:23:42.042Z,1.00
2022-10-30T11:26:28.953Z,1.00
2022-10-30T11:29:00.974Z,1.00
2022-10-30T11:31:38.123Z,1.00
2022-10-30T11:34:30.573Z,1.00
2022-10-30T11:36:59.709Z,1.00
2022-10-30T11:39:29.921Z,1.00
2022-10-30T11:42:02.125Z,1.00
2022-10-30T11:44:35.129Z,1.00
2022-10-30T11:47:06.930Z,1.00
2022-10-30T11:49:41.788Z,1.00
2022-10-30T11:52:11.266Z,1.00
2022-10-30T11:54:44.985Z,1.00
2022-10-30T11:57:23.904Z,1.00
2022-10-30T12:00:00.640Z,1.00
2022-10-30T12:02:42.590Z,1.00
2022-10-30T12:05:38.655Z,1.00
2022-10-30T12:08:22.365Z,1.00
2022-10-30T12:11:01.205Z,1.00
2022-10-30T12:13:35.660Z,1.00
2022-10-30T12:16:16.983Z,1.00
2022-10-30T12:18:58.503Z,1.00
2022-10-30T12:21:28.523Z,1.00
2022-10-30T12:24:02.592Z,1.00
2022-10-30T12:26:31.971Z,1.00
2022-10-30T12:29:03.450Z,1.00
2022-10-30T12:31:39.095Z,1.00
2022-10-30T12:34:29.970Z,1.00
2022-10-30T12:37:06.436Z,1.00
2022-10-30T12:39:57.178Z,1.00
2022-10-30T12:42:26.597Z,1.00
2022-10-30T12:45:06.203Z,1.00
2022-10-30T12:47:41.220Z,1.00
2022-10-30T12:50:20.479Z,1.00
2022-10-30T12:52:55.924Z,1.00
2022-10-30T12:55:30.007Z,1.00
2022-10-30T12:58:04.676Z,1.00
2022-10-30T13:00:40.312Z,1.00
2022-10-30T13:03:24.065Z,1.00
2022-10-30T13:05:58.585Z,1.00
2022-10-30T13:08:33.758Z,1.00
2022-10-30T13:11:10.694Z,1.00
2022-10-30T13:13:45.118Z,1.00
2022-10-30T13:16:17.555Z,1.00
2022-10-30T13:18:46.314Z,1.00
2022-10-30T13:21:25.827Z,1.00
2022-10-30T13:23:59.124Z,1.00
2022-10-30T13:26:40.845Z,1.00
2022-10-30T13:29:21.788Z,1.00
2022-10-30T13:32:01.477Z,1.00
2022-10-30T13:34:41.027Z,1.00
2022-10-30T13:37:17.733Z,1.00
2022-10-30T13:39:56.059Z,1.00
2022-10-30T13:42:38.300Z,1.00
2022-10-30T13:45:28.045Z,1.00
2022-10-30T13:48:06.331Z,1.00
2022-10-30T13:50:48.730Z,1.00
2022-10-30T13:53:24.684Z,1.00
2022-10-30T13:55:54.116Z,1.00
2022-10-30T13:58:28.620Z,1.00
2022-10-30T14:01:03.312Z,1.00
2022-10-30T14:03:44.166Z,1.00
2022-10-30T14:06:24.532Z,1.00
2022-10-30T14:09:03.932Z,1.00
2022-10-30T14:11:32.729Z,1.00
2022-10-30T14:14:06.925Z,1.00
2022-10-30T14:16:44.658Z,1.00
2022-10-30T14:19:14.586Z,1.00
2022-10-30T14:21:45.470Z,1.00
2022-10-30T14:24:21.829Z,1.00
2022-10-30T14:26:53.540Z,1.00
2022-10-30T14:29:42.428Z,1.00
2022-10-30T14:32:47.477Z,1.00
2022-10-30T14:35:41.569Z,1.00
2022-10-30T14:38:37.494Z,1.00
2022-10-30T14:41:29.117Z,1.00
2022-10-30T14:44:23.208Z,1.00
2022-10-30T14:47:08.391Z,1.00
2022-10-30T14:49:48.243Z,1.00
2022-10-30T14:52:34.090Z,1.00
2022-10-30T14:55:32.288Z,1.00
2022-10-30T14:58:27.272Z,1.00
2022-10-30T15:01:30.918Z,1.00
2022-10-30T15:04:11.394Z,1.00
2022-10-30T15:06:52.085Z,1.00
2022-10-30T15:09:34.667Z,1.00
2022-10-30T15:12:36.768Z,1.00
2022-10-30T15:15:13.113Z,1.00
2022-10-30T15:17:44.785Z,1.00
2022-10-30T15:20:19.688Z,1.00
2022-10-30T15:22:51.960Z,1.00
2022-10-30T15:25:24.153Z,1.00
2022-10-30T15:27:55.690Z,1.00
2022-10-30T15:30:27.698Z,1.00
2022-10-30T15:32:56.906Z,1.00
2022-10-30T15:35:27.931Z,1.00
2022-10-30T15:38:01.200Z,1.00
2022-10-30T15:40:31.093Z,1.00
2022-10-30T15:43:02.877Z,1.00
2022-10-30T15:45:36.486Z,1.00
2022-10-30T15:48:09.925Z,1.00
2022-10-30T15:50:54.191Z,1.00
2022-10-30T15:53:27.049Z,1.00
2022-10-30T15:55:59.921Z,1.00
2022-10-30T15:58:28.951Z,1.00
2022-10-30T16:01:01.303Z,1.00
2022-10-30T16:03:31.311Z,1.00
2022-10-30T16:06:19.162Z,1.00
2022-10-30T16:08:49.199Z,1.00
2022-10-30T16:11:18.256Z,1.00
2022-10-30T16:13:46.991Z,1.00
2022-10-30T16:16:22.854Z,1.00
2022-10-30T16:18:52.017Z,1.00
2022-10-30T16:21:23.892Z,1.00
2022-10-30T16:24:06.124Z,1.00
2022-10-30T16:26:37.245Z,1.00
2022-10-30T16:29:18.568Z,1.00
2022-10-30T16:31:50.744Z,5.30
2022-10-30T16:34:27.487Z,26.70
2022-10-30T16:36:58.060Z,17.20
2022-10-30T16:39:29.435Z,24.80
2022-10-30T16:41:59.577Z,25.00
2022-10-30T16:44:29.848Z,45.70
2022-10-30T16:47:02.814Z,63.20
2022-10-30T16:49:33.921Z,95.70
2022-10-30T16:52:07.627Z,99.90
2022-10-30T16:54:41.623Z,99.90
2022-10-30T16:57:17.442Z,99.90
2022-10-30T16:59:49.889Z,97.30
2022-10-30T17:02:22.919Z,99.90
2022-10-30T17:04:58.016Z,99.90
2022-10-30T17:07:28.228Z,99.90
2022-10-30T17:10:00.301Z,99.90
2022-10-30T17:12:30.974Z,99.90
2022-10-30T17:15:12.932Z,99.90
2022-10-30T17:17:45.392Z,99.90
2022-10-30T17:20:30.797Z,99.90
2022-10-30T17:23:14.270Z,99.90
2022-10-30T17:25:45.718Z,99.90
2022-10-30T17:28:28.286Z,99.90
2022-10-30T17:30:57.291Z,99.90
2022-10-30T17:33:32.979Z,1.00
2022-10-30T17:36:02.875Z,99.90
2022-10-30T17:38:31.948Z,99.90
2022-10-30T17:41:03.573Z,99.90
2022-10-30T17:43:35.822Z,99.90
2022-10-30T17:46:05.310Z,99.90
2022-10-30T17:48:34.676Z,1.00
2022-10-30T17:51:04.149Z,99.90
2022-10-30T17:53:33.044Z,99.90
2022-10-30T17:56:06.902Z,1.00
2022-10-30T17:58:35.815Z,1.00
2022-10-30T18:01:04.918Z,1.00
2022-10-30T18:03:33.994Z,1.00
2022-10-30T18:06:04.743Z,1.00
2022-10-30T18:08:35.283Z,1.00
2022-10-30T18:11:05.931Z,1.00
2022-10-30T18:13:34.674Z,1.00
2022-10-30T18:16:03.658Z,1.00
2022-10-30T18:18:35.466Z,1.00
2022-10-30T18:21:04.801Z,1.00
2022-10-30T18:26:28.757Z,1.00
2022-10-30T18:28:57.691Z,1.00
2022-10-30T18:31:27.160Z,1.00
2022-10-30T18:33:56.899Z,1.00
2022-10-30T18:36:27.387Z,1.00
2022-10-30T18:38:56.498Z,1.00
2022-10-30T18:41:33.488Z,1.00
2022-10-30T18:44:03.410Z,1.00
2022-10-30T18:46:35.210Z,1.00
2022-10-30T18:49:04.247Z,45.90
2022-10-30T18:51:33.423Z,99.90
2022-10-30T18:54:04.049Z,99.90
2022-10-30T18:56:35.335Z,99.90
2022-10-30T18:59:05.093Z,20.40
2022-10-30T19:01:36.665Z,99.90
2022-10-30T19:04:07.918Z,99.90
2022-10-30T19:06:38.946Z,99.90
2022-10-30T19:09:08.789Z,1.00
2022-10-30T19:11:43.319Z,1.00
2022-10-30T19:14:15.781Z,99.90
2022-10-30T19:16:44.752Z,99.90
2022-10-30T19:19:15.975Z,99.90
2022-10-30T19:21:45.161Z,99.90
2022-10-30T19:24:18.513Z,99.90
2022-10-30T19:26:49.214Z,99.90
2022-10-30T19:29:18.103Z,99.90
2022-10-30T19:31:52.461Z,99.90
2022-10-30T19:34:23.096Z,99.90
2022-10-30T19:36:55.494Z,1.00
2022-10-30T19:39:24.941Z,1.00
2022-10-30T19:41:55.240Z,2.00
2022-10-30T19:44:24.182Z,1.00
2022-10-30T19:46:53.377Z,1.00
2022-10-30T19:49:23.151Z,99.90
2022-10-30T19:51:52.994Z,99.90
2022-10-30T19:54:22.127Z,1.00
2022-10-30T19:56:50.915Z,1.00
2022-10-30T19:59:21.563Z,1.00
2022-10-30T20:01:50.947Z,1.00
2022-10-30T20:04:20.132Z,1.00
2022-10-30T20:06:49.733Z,99.90
2022-10-30T20:09:19.369Z,1.00
2022-10-30T20:11:48.866Z,1.00
2022-10-30T20:14:18.441Z,99.90
2022-10-30T20:16:49.070Z,99.90
2022-10-30T20:19:29.130Z,99.90
2022-10-30T20:21:59.197Z,99.90
2022-10-30T20:24:28.592Z,44.80
2022-10-30T20:26:59.120Z,99.90
2022-10-30T20:29:28.648Z,77.00
2022-10-30T20:31:59.654Z,99.90
2022-10-30T20:34:32.024Z,99.90
2022-10-30T20:37:01.102Z,99.90
2022-10-30T20:39:30.285Z,1.00
2022-10-30T20:41:59.354Z,97.30
2022-10-30T20:44:28.636Z,1.00
2022-10-30T20:46:59.729Z,99.90
2022-10-30T20:49:28.683Z,99.90
2022-10-30T20:51:58.336Z,99.90
2022-10-30T20:54:27.656Z,99.90
2022-10-30T20:56:57.012Z,1.00
2022-10-30T20:59:26.006Z,1.00
2022-10-30T21:01:55.292Z,99.90
2022-10-30T21:04:26.243Z,99.90
2022-10-30T21:06:55.444Z,99.90
2022-10-30T21:09:24.689Z,1.00
2022-10-30T21:11:53.823Z,99.90
2022-10-30T21:14:22.675Z,99.90
2022-10-30T21:16:51.812Z,1.00
2022-10-30T21:19:20.611Z,99.90
2022-10-30T21:21:52.455Z,1.00
2022-10-30T21:24:21.490Z,99.90
2022-10-30T21:26:50.821Z,1.00
2022-10-30T21:29:21.153Z,1.00
2022-10-30T21:31:50.298Z,99.90
2022-10-30T21:34:19.716Z,3.70
2022-10-30T21:36:50.089Z,99.90
2022-10-30T21:39:18.888Z,99.90
2022-10-30T21:41:47.776Z,99.90
2022-10-30T21:44:16.828Z,99.90
2022-10-30T21:46:45.551Z,99.90
2022-10-30T21:49:16.653Z,99.90
2022-10-30T21:51:48.232Z,99.90
2022-10-30T21:54:19.728Z,99.90
2022-10-30T21:56:50.054Z,99.90
2022-10-30T21:59:18.859Z,99.90
2022-10-30T22:01:47.862Z,99.90
2022-10-30T22:04:16.850Z,99.90
2022-10-30T22:06:46.362Z,1.00
2022-10-30T22:09:18.802Z,99.90
2022-10-30T22:11:47.548Z,99.90
2022-10-30T22:14:16.264Z,58.30
2022-10-30T22:16:45.368Z,99.90
2022-10-30T22:19:14.107Z,1.00
2022-10-30T22:21:42.776Z,1.00
2022-10-30T22:24:13.220Z,99.90
2022-10-30T22:26:43.360Z,1.00
2022-10-30T22:29:12.719Z,1.00
2022-10-30T22:31:41.442Z,87.20
2022-10-30T22:34:10.367Z,99.90
2022-10-30T22:36:39.073Z,99.90
2022-10-30T22:39:10.070Z,1.00
2022-10-30T22:41:38.765Z,1.00
2022-10-30T22:44:09.533Z,1.00
2022-10-30T22:46:38.679Z,97.90
2022-10-30T22:49:08.134Z,76.50
2022-10-30T22:51:38.738Z,11.50
2022-10-30T22:54:09.373Z,99.90
2022-10-30T22:56:39.234Z,99.90
2022-10-30T22:59:12.308Z,99.90
2022-10-30T23:01:42.013Z,99.90
2022-10-30T23:04:12.900Z,99.90
2022-10-30T23:06:41.611Z,99.90
2022-10-30T23:09:15.988Z,99.90
2022-10-30T23:11:44.714Z,99.90
2022-10-30T23:14:15.546Z,99.90
2022-10-30T23:16:44.335Z,99.90
2022-10-30T23:19:13.111Z,99.90
2022-10-30T23:21:41.736Z,99.90
2022-10-30T23:24:10.531Z,99.90
2022-10-30T23:26:39.219Z,99.90
2022-10-30T23:29:07.907Z,99.90
2022-10-30T23:31:40.161Z,99.90
2022-10-30T23:34:10.976Z,99.90
2022-10-30T23:36:39.837Z,99.90
2022-10-30T23:39:11.141Z,71.30
2022-10-30T23:41:39.841Z,99.90
2022-10-30T23:44:12.119Z,1.00
2022-10-30T23:46:42.456Z,1.00
2022-10-30T23:49:11.158Z,1.00
2022-10-30T23:51:39.830Z,1.00
2022-10-30T23:54:08.542Z,1.00
2022-10-30T23:56:37.235Z,1.00
2022-10-30T23:59:06.052Z,1.00
